createdAt,value
2022-09-17T00:01:31.266Z,1.17
2022-09-17T00:04:02.111Z,0.90
2022-09-17T00:06:32.511Z,1.00
2022-09-17T00:08:59.567Z,1.03
2022-09-17T00:11:31.459Z,0.93
2022-09-17T00:14:03.080Z,1.00
2022-09-17T00:16:43.872Z,1.27
2022-09-17T00:19:22.991Z,0.90
2022-09-17T00:21:52.198Z,0.87
2022-09-17T00:24:22.859Z,1.17
2022-09-17T00:26:53.883Z,0.97
2022-09-17T00:29:22.934Z,0.90
2022-09-17T00:31:50.251Z,1.27
2022-09-17T00:34:17.523Z,1.40
2022-09-17T00:36:44.532Z,0.90
2022-09-17T00:39:12.823Z,0.90
2022-09-17T00:41:43.640Z,1.13
2022-09-17T00:44:56.570Z,0.93
2022-09-17T00:47:38.856Z,1.10
2022-09-17T00:50:13.081Z,0.90
2022-09-17T00:52:51.527Z,1.10
2022-09-17T00:56:00.243Z,1.03
2022-09-17T00:58:27.529Z,1.00
2022-09-17T01:00:54.578Z,1.23
2022-09-17T01:03:22.622Z,0.90
2022-09-17T01:06:17.395Z,1.40
2022-09-17T01:09:02.376Z,1.30
2022-09-17T01:11:39.212Z,1.07
2022-09-17T01:14:32.511Z,1.00
2022-09-17T01:17:13.207Z,1.50
2022-09-17T01:20:04.634Z,1.30
2022-09-17T01:22:57.198Z,1.00
2022-09-17T01:25:38.435Z,1.13
2022-09-17T01:28:32.791Z,1.30
2022-09-17T01:31:23.764Z,1.10
2022-09-17T01:34:27.489Z,0.90
2022-09-17T01:36:59.027Z,1.23
2022-09-17T01:39:42.988Z,1.30
2022-09-17T01:42:26.094Z,0.93
2022-09-17T01:45:02.274Z,1.47
2022-09-17T01:47:52.458Z,1.17
2022-09-17T01:50:30.459Z,0.97
2022-09-17T01:53:00.381Z,1.20
2022-09-17T01:55:35.707Z,1.10
2022-09-17T01:58:15.374Z,0.90
2022-09-17T02:00:49.092Z,1.20
2022-09-17T02:03:41.662Z,1.20
2022-09-17T02:06:14.554Z,1.47
2022-09-17T02:09:26.051Z,1.20
2022-09-17T02:12:03.688Z,0.90
2022-09-17T02:14:50.367Z,0.90
2022-09-17T02:17:26.998Z,1.13
2022-09-17T02:19:56.121Z,1.23
2022-09-17T02:22:37.270Z,1.30
2022-09-17T02:25:22.397Z,0.90
2022-09-17T02:28:03.755Z,1.40
2022-09-17T02:30:32.121Z,1.00
2022-09-17T02:33:01.926Z,1.20
2022-09-17T02:35:33.060Z,1.10
2022-09-17T02:38:01.083Z,1.27
2022-09-17T02:40:34.109Z,1.43
2022-09-17T02:43:06.708Z,1.20
2022-09-17T02:46:00.028Z,1.20
2022-09-17T02:49:07.274Z,1.00
2022-09-17T02:52:16.473Z,1.37
2022-09-17T02:55:01.188Z,1.10
2022-09-17T02:57:53.574Z,1.43
2022-09-17T03:00:23.229Z,1.50
2022-09-17T03:03:00.368Z,1.47
2022-09-17T03:05:29.668Z,1.30
2022-09-17T03:07:57.495Z,1.37
2022-09-17T03:10:24.601Z,1.63
2022-09-17T03:12:53.866Z,1.50
2022-09-17T03:15:20.725Z,1.70
2022-09-17T03:17:53.262Z,1.50
2022-09-17T03:20:23.638Z,1.50
2022-09-17T03:22:52.511Z,1.97
2022-09-17T03:25:19.380Z,1.60
2022-09-17T03:27:46.339Z,2.30
2022-09-17T03:30:13.363Z,1.80
2022-09-17T03:32:41.303Z,1.60
2022-09-17T03:35:08.516Z,1.60
2022-09-17T03:37:35.452Z,1.70
2022-09-17T03:40:02.818Z,2.40
2022-09-17T03:42:29.959Z,2.10
2022-09-17T03:44:57.247Z,1.87
2022-09-17T03:47:28.179Z,1.43
2022-09-17T03:49:55.719Z,1.73
2022-09-17T03:52:22.702Z,1.50
2022-09-17T03:54:49.631Z,1.97
2022-09-17T03:57:16.976Z,1.93
2022-09-17T03:59:43.861Z,1.97
2022-09-17T04:02:10.871Z,2.05
2022-09-17T04:04:37.895Z,1.90
2022-09-17T04:07:08.662Z,2.03
2022-09-17T04:09:35.590Z,1.90
2022-09-17T04:12:03.104Z,1.80
2022-09-17T04:14:29.995Z,1.57
2022-09-17T04:16:59.051Z,1.70
2022-09-17T04:19:25.942Z,1.83
2022-09-17T04:21:53.110Z,2.10
2022-09-17T04:24:20.286Z,1.73
2022-09-17T04:26:47.324Z,1.80
2022-09-17T04:29:14.234Z,2.33
2022-09-17T04:31:41.193Z,1.60
2022-09-17T04:34:08.278Z,2.10
2022-09-17T04:36:35.394Z,1.73
2022-09-17T04:39:02.260Z,1.70
2022-09-17T04:41:29.107Z,1.60
2022-09-17T04:43:59.108Z,1.50
2022-09-17T04:46:27.050Z,1.50
2022-09-17T04:48:58.350Z,1.60
2022-09-17T04:51:25.287Z,1.30
2022-09-17T04:53:52.168Z,1.73
2022-09-17T04:56:20.675Z,1.40
2022-09-17T04:58:52.747Z,1.50
2022-09-17T05:01:19.737Z,1.63
2022-09-17T05:03:46.793Z,1.50
2022-09-17T05:06:20.763Z,1.33
2022-09-17T05:08:47.667Z,2.30
2022-09-17T05:11:14.784Z,1.60
2022-09-17T05:13:41.706Z,1.70
2022-09-17T05:16:10.749Z,2.07
2022-09-17T05:18:37.712Z,2.90
2022-09-17T05:21:05.315Z,1.90
2022-09-17T05:23:32.202Z,2.20
2022-09-17T05:26:02.575Z,1.70
2022-09-17T05:28:31.555Z,1.83
2022-09-17T05:31:05.593Z,2.67
2022-09-17T05:33:32.706Z,2.30
2022-09-17T05:36:00.071Z,2.17
2022-09-17T05:38:30.313Z,2.40
2022-09-17T05:40:57.355Z,2.50
2022-09-17T05:43:24.284Z,2.60
2022-09-17T05:45:51.760Z,2.80
2022-09-17T05:48:22.779Z,2.10
2022-09-17T05:50:50.738Z,2.40
2022-09-17T05:53:20.802Z,2.30
2022-09-17T05:55:47.736Z,1.93
2022-09-17T05:58:18.601Z,2.00
2022-09-17T06:00:48.744Z,2.47
2022-09-17T06:03:24.875Z,2.07
2022-09-17T06:05:58.311Z,2.17
2022-09-17T06:08:36.831Z,2.00
2022-09-17T06:11:08.422Z,2.30
2022-09-17T06:13:35.947Z,2.03
2022-09-17T06:16:03.978Z,2.10
2022-09-17T06:18:32.222Z,1.87
2022-09-17T06:21:05.525Z,1.87
2022-09-17T06:23:37.152Z,2.70
2022-09-17T06:26:06.403Z,2.27
2022-09-17T06:28:36.721Z,2.60
2022-09-17T06:31:10.595Z,2.20
2022-09-17T06:33:39.772Z,2.20
2022-09-17T06:36:13.892Z,2.00
2022-09-17T06:38:42.817Z,2.23
2022-09-17T06:41:11.101Z,1.83
2022-09-17T06:43:40.247Z,2.23
2022-09-17T06:46:09.052Z,2.20
2022-09-17T06:48:37.708Z,2.70
2022-09-17T06:51:08.910Z,3.07
2022-09-17T06:53:38.783Z,2.20
2022-09-17T06:56:08.437Z,2.67
2022-09-17T06:58:37.446Z,1.77
2022-09-17T07:01:06.057Z,1.70
2022-09-17T07:03:33.689Z,2.90
2022-09-17T07:06:00.932Z,2.03
2022-09-17T07:08:28.063Z,1.97
2022-09-17T07:10:59.148Z,2.10
2022-09-17T07:13:27.335Z,2.20
2022-09-17T07:16:05.398Z,1.70
2022-09-17T07:18:33.781Z,2.27
2022-09-17T07:21:03.893Z,1.90
2022-09-17T07:23:35.066Z,2.00
2022-09-17T07:26:06.720Z,1.80
2022-09-17T07:28:39.027Z,2.07
2022-09-17T07:31:13.733Z,1.77
2022-09-17T07:33:42.393Z,1.60
2022-09-17T07:36:15.016Z,1.60
2022-09-17T07:38:41.954Z,1.80
2022-09-17T07:41:15.734Z,1.40
2022-09-17T07:43:43.798Z,1.50
2022-09-17T07:46:18.723Z,1.43
2022-09-17T07:48:46.884Z,1.70
2022-09-17T07:51:25.883Z,2.30
2022-09-17T07:53:55.410Z,1.70
2022-09-17T07:56:23.852Z,1.50
2022-09-17T07:58:51.878Z,2.03
2022-09-17T08:01:21.188Z,1.90
2022-09-17T08:03:54.235Z,2.07
2022-09-17T08:06:28.358Z,1.70
2022-09-17T08:08:57.264Z,1.53
2022-09-17T08:11:57.147Z,1.60
2022-09-17T08:14:16.093Z,1.80
2022-09-17T08:16:43.187Z,1.60
2022-09-17T08:19:10.868Z,1.90
2022-09-17T08:21:39.860Z,1.53
2022-09-17T08:24:07.148Z,1.33
2022-09-17T08:26:34.220Z,1.67
2022-09-17T08:29:02.532Z,2.07
2022-09-17T08:31:38.826Z,1.77
2022-09-17T08:34:09.883Z,1.80
2022-09-17T08:36:39.018Z,1.80
2022-09-17T08:39:06.025Z,1.60
2022-09-17T08:42:18.136Z,1.80
2022-09-17T08:44:49.871Z,1.67
2022-09-17T08:47:37.863Z,1.77
2022-09-17T08:50:08.338Z,1.90
2022-09-17T08:53:23.369Z,1.70
2022-09-17T08:56:16.181Z,1.40
2022-09-17T08:59:08.227Z,1.37
2022-09-17T09:01:43.472Z,1.87
2022-09-17T09:04:36.835Z,1.80
2022-09-17T09:07:19.687Z,1.53
2022-09-17T09:10:23.378Z,1.77
2022-09-17T09:12:53.182Z,1.50
2022-09-17T09:15:43.679Z,1.77
2022-09-17T09:18:19.538Z,1.30
2022-09-17T09:21:07.261Z,1.83
2022-09-17T09:23:58.525Z,1.80
2022-09-17T09:26:58.724Z,1.40
2022-09-17T09:29:46.311Z,1.20
2022-09-17T09:32:53.371Z,1.50
2022-09-17T09:35:25.463Z,1.40
2022-09-17T09:38:14.962Z,1.60
2022-09-17T09:40:52.324Z,1.00
2022-09-17T09:44:02.781Z,1.40
2022-09-17T09:47:26.343Z,1.40
2022-09-17T09:50:23.314Z,1.30
2022-09-17T09:53:35.842Z,1.27
2022-09-17T09:56:37.431Z,1.33
2022-09-17T09:59:08.671Z,1.00
2022-09-17T10:01:42.455Z,1.47
2022-09-17T10:04:23.534Z,0.93
2022-09-17T10:06:54.873Z,1.60
2022-09-17T10:09:22.697Z,1.73
2022-09-17T10:12:05.219Z,1.33
2022-09-17T10:14:38.355Z,1.80
2022-09-17T10:17:21.649Z,1.30
2022-09-17T10:20:07.794Z,1.20
2022-09-17T10:22:36.694Z,1.67
2022-09-17T10:25:32.033Z,1.77
2022-09-17T10:28:41.121Z,1.17
2022-09-17T10:31:12.321Z,1.90
2022-09-17T10:34:01.940Z,1.50
2022-09-17T10:36:42.905Z,1.53
2022-09-17T10:39:44.503Z,1.30
2022-09-17T10:42:11.415Z,1.50
2022-09-17T10:44:56.795Z,1.63
2022-09-17T10:47:30.058Z,1.40
2022-09-17T10:50:32.326Z,2.00
2022-09-17T10:53:05.008Z,1.60
2022-09-17T10:56:17.518Z,1.60
2022-09-17T10:59:22.424Z,1.50
2022-09-17T11:03:01.725Z,1.40
2022-09-17T11:05:49.251Z,1.10
2022-09-17T11:08:59.344Z,1.23
2022-09-17T11:12:15.717Z,1.30
2022-09-17T11:15:03.677Z,1.10
2022-09-17T11:18:21.493Z,1.40
2022-09-17T11:21:03.378Z,1.27
2022-09-17T11:24:05.628Z,1.73
2022-09-17T11:27:19.718Z,1.43
2022-09-17T11:29:55.935Z,1.43
2022-09-17T11:33:01.727Z,2.80
2022-09-17T11:35:36.124Z,1.33
2022-09-17T11:38:20.627Z,1.27
2022-09-17T11:41:04.242Z,1.10
2022-09-17T11:43:37.970Z,1.37
2022-09-17T11:46:43.929Z,1.30
2022-09-17T11:50:00.016Z,0.90
2022-09-17T11:52:37.999Z,1.43
2022-09-17T11:55:46.706Z,1.30
2022-09-17T11:58:43.970Z,1.07
2022-09-17T12:01:30.621Z,1.50
2022-09-17T12:04:05.655Z,1.00
2022-09-17T12:07:17.526Z,0.90
2022-09-17T12:09:54.875Z,0.90
2022-09-17T12:12:48.554Z,1.43
2022-09-17T12:15:35.025Z,1.10
2022-09-17T12:18:32.322Z,0.90
2022-09-17T12:21:04.513Z,0.90
2022-09-17T12:23:42.023Z,0.70
2022-09-17T12:26:34.499Z,1.30
2022-09-17T12:29:28.735Z,0.80
2022-09-17T12:32:38.136Z,0.90
2022-09-17T12:36:04.364Z,0.80
2022-09-17T12:39:21.566Z,0.93
2022-09-17T12:42:15.261Z,1.27
2022-09-17T12:45:16.081Z,1.20
2022-09-17T12:48:20.105Z,1.10
2022-09-17T12:51:43.246Z,0.93
2022-09-17T12:54:28.571Z,1.30
2022-09-17T12:57:26.282Z,1.07
2022-09-17T13:00:22.939Z,1.10
2022-09-17T13:03:12.655Z,1.23
2022-09-17T13:06:31.742Z,1.63
2022-09-17T13:09:48.081Z,1.33
2022-09-17T13:12:26.959Z,1.23
2022-09-17T13:15:42.265Z,1.40
2022-09-17T13:18:34.628Z,1.10
2022-09-17T13:21:24.355Z,1.60
2022-09-17T13:23:53.687Z,2.23
2022-09-17T13:26:34.239Z,1.43
2022-09-17T13:29:01.955Z,1.10
2022-09-17T13:31:34.993Z,1.57
2022-09-17T13:34:03.628Z,0.90
2022-09-17T13:36:38.269Z,0.80
2022-09-17T13:39:08.937Z,0.90
2022-09-17T13:41:40.822Z,0.70
2022-09-17T13:44:10.197Z,0.77
2022-09-17T13:46:40.435Z,0.90
2022-09-17T13:49:15.978Z,1.30
2022-09-17T13:51:45.935Z,1.40
2022-09-17T13:54:16.837Z,1.50
2022-09-17T13:57:09.532Z,1.27
2022-09-17T13:59:37.976Z,0.90
2022-09-17T14:02:28.705Z,1.60
2022-09-17T14:05:33.007Z,1.20
2022-09-17T14:08:13.511Z,1.30
2022-09-17T14:10:44.479Z,1.50
2022-09-17T14:13:36.560Z,1.10
2022-09-17T14:16:28.585Z,1.00
2022-09-17T14:19:24.094Z,1.13
2022-09-17T14:22:06.679Z,1.73
2022-09-17T14:24:52.515Z,1.23
2022-09-17T14:27:42.529Z,1.20
2022-09-17T14:30:39.699Z,1.73
2022-09-17T14:33:18.886Z,1.00
2022-09-17T14:35:54.504Z,1.30
2022-09-17T14:38:37.104Z,1.40
2022-09-17T14:41:25.879Z,1.10
2022-09-17T14:44:01.270Z,1.47
2022-09-17T14:46:34.080Z,1.10
2022-09-17T14:49:29.626Z,0.87
2022-09-17T14:51:59.104Z,1.40
2022-09-17T14:54:43.709Z,1.07
2022-09-17T14:57:10.539Z,1.13
2022-09-17T15:00:00.056Z,1.00
2022-09-17T15:02:41.269Z,1.10
2022-09-17T15:05:35.488Z,1.27
2022-09-17T15:08:21.267Z,0.93
2022-09-17T15:11:01.001Z,0.80
2022-09-17T15:13:41.560Z,1.00
2022-09-17T15:16:27.679Z,1.20
2022-09-17T15:19:04.250Z,1.20
2022-09-17T15:21:44.275Z,1.20
2022-09-17T15:24:35.054Z,1.30
2022-09-17T15:27:23.456Z,1.43
2022-09-17T15:30:00.288Z,1.50
2022-09-17T15:32:27.697Z,1.00
2022-09-17T15:35:13.607Z,1.10
2022-09-17T15:38:22.738Z,1.33
2022-09-17T15:40:50.708Z,1.17
2022-09-17T15:43:30.736Z,1.20
2022-09-17T15:46:20.213Z,1.33
2022-09-17T15:48:47.229Z,1.37
2022-09-17T15:51:27.778Z,1.10
2022-09-17T15:54:29.301Z,1.30
2022-09-17T15:57:01.167Z,1.60
2022-09-17T15:59:34.077Z,1.20
2022-09-17T16:02:02.487Z,1.50
2022-09-17T16:04:34.579Z,1.43
2022-09-17T16:07:27.949Z,1.80
2022-09-17T16:09:55.149Z,1.30
2022-09-17T16:12:26.634Z,1.47
2022-09-17T16:14:58.060Z,1.40
2022-09-17T16:17:47.497Z,1.50
2022-09-17T16:20:23.577Z,2.10
2022-09-17T16:22:53.509Z,1.50
2022-09-17T16:25:27.438Z,1.30
2022-09-17T16:28:10.912Z,1.20
2022-09-17T16:30:48.459Z,1.20
2022-09-17T16:33:17.977Z,1.40
2022-09-17T16:35:45.191Z,1.00
2022-09-17T16:38:13.206Z,1.23
2022-09-17T16:40:43.107Z,1.10
2022-09-17T16:43:10.800Z,1.10
2022-09-17T16:45:42.927Z,1.10
2022-09-17T16:48:10.897Z,1.20
2022-09-17T16:50:41.419Z,1.50
2022-09-17T16:53:08.436Z,1.00
2022-09-17T16:55:35.324Z,0.90
2022-09-17T16:58:02.315Z,1.10
2022-09-17T17:00:32.436Z,0.90
2022-09-17T17:03:03.226Z,0.83
2022-09-17T17:05:31.171Z,1.40
2022-09-17T17:07:58.136Z,1.10
2022-09-17T17:10:26.644Z,0.90
2022-09-17T17:12:53.756Z,0.80
2022-09-17T17:15:21.761Z,1.20
2022-09-17T17:17:48.738Z,0.93
2022-09-17T17:20:16.858Z,0.70
2022-09-17T17:22:44.798Z,0.73
2022-09-17T17:25:14.079Z,0.80
2022-09-17T17:27:41.618Z,0.97
2022-09-17T17:30:16.500Z,1.03
2022-09-17T17:32:51.170Z,0.90
2022-09-17T17:35:19.298Z,1.07
2022-09-17T17:37:47.463Z,1.00
2022-09-17T17:40:14.711Z,0.80
2022-09-17T17:42:44.251Z,1.30
2022-09-17T17:45:11.679Z,0.87
2022-09-17T17:47:38.561Z,1.10
2022-09-17T17:50:06.140Z,1.07
2022-09-17T17:52:33.204Z,1.10
2022-09-17T17:55:00.111Z,1.07
2022-09-17T17:57:27.098Z,1.17
2022-09-17T17:59:54.048Z,0.70
2022-09-17T18:02:21.149Z,0.80
2022-09-17T18:04:48.151Z,1.00
2022-09-17T18:07:15.139Z,0.70
2022-09-17T18:09:42.077Z,0.90
2022-09-17T18:12:09.213Z,0.60
2022-09-17T18:14:36.130Z,0.90
2022-09-17T18:17:03.057Z,0.60
2022-09-17T18:19:29.987Z,0.90
2022-09-17T18:21:56.880Z,0.87
2022-09-17T18:24:23.917Z,0.90
2022-09-17T18:26:50.960Z,1.07
2022-09-17T18:29:18.014Z,0.80
2022-09-17T18:31:45.264Z,0.83
2022-09-17T18:34:16.911Z,0.90
2022-09-17T18:36:50.781Z,1.53
2022-09-17T18:39:57.334Z,1.30
2022-09-17T18:42:06.494Z,1.60
2022-09-17T18:44:33.513Z,1.97
2022-09-17T18:47:00.564Z,1.93
2022-09-17T18:49:27.689Z,2.50
2022-09-17T18:52:00.737Z,2.10
2022-09-17T18:54:32.807Z,1.30
2022-09-17T18:57:04.833Z,1.43
2022-09-17T18:59:31.918Z,1.20
2022-09-17T19:01:58.830Z,1.27
2022-09-17T19:04:28.203Z,1.00
2022-09-17T19:06:55.738Z,1.10
2022-09-17T19:09:29.740Z,1.03
2022-09-17T19:11:56.589Z,1.20
2022-09-17T19:14:23.501Z,1.03
2022-09-17T19:16:50.403Z,0.87
2022-09-17T19:19:18.422Z,1.07
2022-09-17T19:21:45.313Z,0.80
2022-09-17T19:24:12.299Z,1.00
2022-09-17T19:26:39.479Z,1.20
2022-09-17T19:29:11.452Z,0.90
2022-09-17T19:31:38.521Z,1.10
2022-09-17T19:34:05.486Z,1.00
2022-09-17T19:36:32.421Z,1.40
2022-09-17T19:39:01.434Z,1.07
2022-09-17T19:41:28.441Z,1.20
2022-09-17T19:43:58.772Z,1.20
2022-09-17T19:46:26.796Z,1.40
2022-09-17T19:48:56.538Z,1.10
2022-09-17T19:51:28.380Z,1.10
2022-09-17T19:53:55.747Z,1.07
2022-09-17T19:56:26.126Z,0.90
2022-09-17T19:58:53.439Z,1.10
2022-09-17T20:01:20.820Z,1.00
2022-09-17T20:03:58.942Z,0.90
2022-09-17T20:06:27.287Z,0.90
2022-09-17T20:08:55.223Z,0.83
2022-09-17T20:11:24.734Z,0.93
2022-09-17T20:14:03.346Z,0.90
2022-09-17T20:16:30.797Z,1.70
2022-09-17T20:18:59.448Z,2.13
2022-09-17T20:21:29.455Z,1.87
2022-09-17T20:23:57.638Z,1.20
2022-09-17T20:26:28.436Z,1.50
2022-09-17T20:28:55.494Z,1.80
2022-09-17T20:31:28.563Z,1.40
2022-09-17T20:33:58.876Z,0.93
2022-09-17T20:36:33.354Z,1.23
2022-09-17T20:39:17.944Z,0.93
2022-09-17T20:41:48.239Z,1.40
2022-09-17T20:44:15.194Z,1.00
2022-09-17T20:46:43.160Z,1.20
2022-09-17T20:49:10.207Z,1.20
2022-09-17T20:51:37.067Z,1.13
2022-09-17T20:54:04.465Z,1.13
2022-09-17T20:56:34.143Z,1.20
2022-09-17T20:59:09.444Z,1.13
2022-09-17T21:01:37.813Z,1.00
2022-09-17T21:04:08.606Z,1.33
2022-09-17T21:06:38.892Z,1.00
2022-09-17T21:09:06.351Z,1.43
2022-09-17T21:11:34.606Z,1.20
2022-09-17T21:14:04.550Z,1.50
2022-09-17T21:16:31.601Z,1.17
2022-09-17T21:19:05.147Z,1.20
2022-09-17T21:21:34.560Z,1.10
2022-09-17T21:24:07.713Z,1.80
2022-09-17T21:26:35.110Z,1.60
2022-09-17T21:29:03.256Z,1.13
2022-09-17T21:31:33.789Z,1.30
2022-09-17T21:34:05.519Z,1.40
2022-09-17T21:36:36.609Z,1.60
2022-09-17T21:39:07.919Z,1.90
2022-09-17T21:41:41.612Z,1.60
2022-09-17T21:44:11.603Z,1.67
2022-09-17T21:46:39.392Z,1.60
2022-09-17T21:49:06.719Z,2.33
2022-09-17T21:51:42.318Z,1.67
2022-09-17T21:54:13.148Z,1.90
2022-09-17T21:56:40.144Z,1.50
2022-09-17T21:59:11.243Z,1.20
2022-09-17T22:01:46.028Z,1.63
2022-09-17T22:04:17.508Z,1.63
2022-09-17T22:06:47.557Z,1.47
2022-09-17T22:09:25.672Z,1.70
2022-09-17T22:11:53.570Z,1.20
2022-09-17T22:14:24.475Z,1.90
2022-09-17T22:16:55.171Z,1.40
2022-09-17T22:19:23.964Z,1.37
2022-09-17T22:21:53.922Z,1.17
2022-09-17T22:24:24.227Z,1.20
2022-09-17T22:26:57.442Z,1.13
2022-09-17T22:29:31.611Z,1.60
2022-09-17T22:31:58.843Z,1.87
2022-09-17T22:34:26.441Z,1.33
2022-09-17T22:36:53.335Z,1.50
2022-09-17T22:39:25.416Z,1.50
2022-09-17T22:41:54.671Z,1.23
2022-09-17T22:44:26.776Z,1.13
2022-09-17T22:46:53.845Z,1.37
2022-09-17T22:49:24.876Z,1.47
2022-09-17T22:51:52.201Z,1.27
2022-09-17T22:54:19.388Z,1.40
2022-09-17T22:56:49.067Z,1.37
2022-09-17T22:59:18.015Z,1.47
2022-09-17T23:01:45.065Z,1.20
2022-09-17T23:04:18.031Z,1.30
2022-09-17T23:06:44.968Z,1.20
2022-09-17T23:09:13.932Z,1.10
2022-09-17T23:11:43.044Z,1.00
2022-09-17T23:14:12.637Z,0.90
2022-09-17T23:16:43.933Z,1.50
2022-09-17T23:19:13.067Z,1.00
2022-09-17T23:21:43.266Z,1.20
2022-09-17T23:24:16.782Z,1.40
2022-09-17T23:26:43.668Z,1.43
2022-09-17T23:29:11.020Z,1.30
2022-09-17T23:31:38.351Z,1.23
2022-09-17T23:34:08.278Z,1.10
2022-09-17T23:36:39.564Z,1.43
2022-09-17T23:39:10.412Z,1.50
2022-09-17T23:41:43.335Z,1.10
2022-09-17T23:44:16.065Z,1.40
2022-09-17T23:46:45.772Z,1.20
2022-09-17T23:49:14.812Z,2.07
2022-09-17T23:51:42.516Z,1.60
2022-09-17T23:54:09.543Z,1.37
2022-09-17T23:56:36.859Z,1.20
2022-09-17T23:59:05.057Z,1.00
